sensor_id;sensor_type;location;lat;lon;timestamp;P1;durP1;ratioP1;P2;durP2;ratioP2
48526;SDS011;34317;51.660;5.824;2022-07-29T00:02:27;3.15;;;1.40;;
48526;SDS011;34317;51.660;5.824;2022-07-29T00:04:54;5.15;;;1.13;;
48526;SDS011;34317;51.660;5.824;2022-07-29T00:07:21;3.22;;;1.40;;
48526;SDS011;34317;51.660;5.824;2022-07-29T00:09:48;3.95;;;1.60;;
48526;SDS011;34317;51.660;5.824;2022-07-29T00:12:19;2.67;;;1.15;;
48526;SDS011;34317;51.660;5.824;2022-07-29T00:14:53;1.97;;;1.20;;
48526;SDS011;34317;51.660;5.824;2022-07-29T00:17:22;2.08;;;1.13;;
48526;SDS011;34317;51.660;5.824;2022-07-29T00:19:49;3.80;;;1.50;;
48526;SDS011;34317;51.660;5.824;2022-07-29T00:22:17;3.05;;;1.30;;
48526;SDS011;34317;51.660;5.824;2022-07-29T00:24:44;5.28;;;1.40;;
48526;SDS011;34317;51.660;5.824;2022-07-29T00:27:14;3.50;;;1.02;;
48526;SDS011;34317;51.660;5.824;2022-07-29T00:29:41;5.20;;;1.40;;
48526;SDS011;34317;51.660;5.824;2022-07-29T00:32:08;4.03;;;1.35;;
48526;SDS011;34317;51.660;5.824;2022-07-29T00:34:35;3.38;;;1.52;;
48526;SDS011;34317;51.660;5.824;2022-07-29T00:39:48;3.95;;;1.45;;
48526;SDS011;34317;51.660;5.824;2022-07-29T00:42:15;3.17;;;1.33;;
48526;SDS011;34317;51.660;5.824;2022-07-29T00:44:43;3.05;;;1.10;;
48526;SDS011;34317;51.660;5.824;2022-07-29T00:47:10;2.33;;;1.10;;
48526;SDS011;34317;51.660;5.824;2022-07-29T00:49:39;2.03;;;1.17;;
48526;SDS011;34317;51.660;5.824;2022-07-29T00:52:08;2.10;;;1.10;;
48526;SDS011;34317;51.660;5.824;2022-07-29T00:54:37;2.60;;;1.98;;
48526;SDS011;34317;51.660;5.824;2022-07-29T00:57:10;4.32;;;1.50;;
48526;SDS011;34317;51.660;5.824;2022-07-29T00:59:38;2.28;;;1.20;;
48526;SDS011;34317;51.660;5.824;2022-07-29T01:02:05;4.32;;;1.40;;
48526;SDS011;34317;51.660;5.824;2022-07-29T01:04:33;4.18;;;1.40;;
48526;SDS011;34317;51.660;5.824;2022-07-29T01:07:01;5.22;;;1.52;;
48526;SDS011;34317;51.660;5.824;2022-07-29T01:09:29;2.13;;;1.40;;
48526;SDS011;34317;51.660;5.824;2022-07-29T01:12:12;5.53;;;1.85;;
48526;SDS011;34317;51.660;5.824;2022-07-29T01:14:44;2.30;;;1.50;;
48526;SDS011;34317;51.660;5.824;2022-07-29T01:23:01;4.22;;;1.50;;
48526;SDS011;34317;51.660;5.824;2022-07-29T01:28:52;3.13;;;1.67;;
48526;SDS011;34317;51.660;5.824;2022-07-29T01:31:42;4.15;;;1.95;;
48526;SDS011;34317;51.660;5.824;2022-07-29T01:34:35;5.07;;;2.28;;
48526;SDS011;34317;51.660;5.824;2022-07-29T01:38:00;4.43;;;1.92;;
48526;SDS011;34317;51.660;5.824;2022-07-29T01:40:30;4.82;;;2.13;;
48526;SDS011;34317;51.660;5.824;2022-07-29T01:43:38;3.47;;;1.90;;
48526;SDS011;34317;51.660;5.824;2022-07-29T01:46:19;5.53;;;2.03;;
48526;SDS011;34317;51.660;5.824;2022-07-29T01:48:53;3.97;;;2.05;;
48526;SDS011;34317;51.660;5.824;2022-07-29T01:51:25;5.05;;;2.03;;
48526;SDS011;34317;51.660;5.824;2022-07-29T01:56:35;3.75;;;1.95;;
48526;SDS011;34317;51.660;5.824;2022-07-29T01:59:04;3.88;;;2.28;;
48526;SDS011;34317;51.660;5.824;2022-07-29T02:01:33;3.47;;;2.00;;
48526;SDS011;34317;51.660;5.824;2022-07-29T02:04:02;4.10;;;2.50;;
48526;SDS011;34317;51.660;5.824;2022-07-29T02:06:32;5.13;;;2.10;;
48526;SDS011;34317;51.660;5.824;2022-07-29T02:09:02;8.20;;;2.60;;
48526;SDS011;34317;51.660;5.824;2022-07-29T02:11:34;3.80;;;1.98;;
48526;SDS011;34317;51.660;5.824;2022-07-29T02:14:03;4.32;;;2.50;;
48526;SDS011;34317;51.660;5.824;2022-07-29T02:16:32;4.35;;;2.55;;
48526;SDS011;34317;51.660;5.824;2022-07-29T02:19:03;5.43;;;2.90;;
48526;SDS011;34317;51.660;5.824;2022-07-29T02:21:33;5.38;;;2.58;;
48526;SDS011;34317;51.660;5.824;2022-07-29T02:24:02;4.15;;;2.60;;
48526;SDS011;34317;51.660;5.824;2022-07-29T02:26:30;6.68;;;2.97;;
48526;SDS011;34317;51.660;5.824;2022-07-29T02:29:00;5.38;;;2.65;;
48526;SDS011;34317;51.660;5.824;2022-07-29T02:31:30;3.63;;;2.60;;
48526;SDS011;34317;51.660;5.824;2022-07-29T02:34:01;5.10;;;2.70;;
48526;SDS011;34317;51.660;5.824;2022-07-29T02:36:32;3.85;;;2.70;;
48526;SDS011;34317;51.660;5.824;2022-07-29T02:39:00;5.75;;;3.00;;
48526;SDS011;34317;51.660;5.824;2022-07-29T02:41:30;3.85;;;2.42;;
48526;SDS011;34317;51.660;5.824;2022-07-29T02:44:09;5.25;;;2.85;;
48526;SDS011;34317;51.660;5.824;2022-07-29T02:46:46;5.07;;;2.20;;
48526;SDS011;34317;51.660;5.824;2022-07-29T02:52:12;5.38;;;2.60;;
48526;SDS011;34317;51.660;5.824;2022-07-29T02:57:42;4.13;;;2.45;;
48526;SDS011;34317;51.660;5.824;2022-07-29T03:00:22;2.92;;;2.20;;
48526;SDS011;34317;51.660;5.824;2022-07-29T03:02:53;3.50;;;2.30;;
48526;SDS011;34317;51.660;5.824;2022-07-29T03:05:22;3.88;;;2.25;;
48526;SDS011;34317;51.660;5.824;2022-07-29T03:08:03;5.97;;;2.35;;
48526;SDS011;34317;51.660;5.824;2022-07-29T03:10:32;3.70;;;2.30;;
48526;SDS011;34317;51.660;5.824;2022-07-29T03:13:00;5.35;;;2.70;;
48526;SDS011;34317;51.660;5.824;2022-07-29T03:15:28;3.00;;;2.33;;
48526;SDS011;34317;51.660;5.824;2022-07-29T03:17:56;4.00;;;2.38;;
48526;SDS011;34317;51.660;5.824;2022-07-29T03:20:24;3.35;;;2.63;;
48526;SDS011;34317;51.660;5.824;2022-07-29T03:22:51;4.82;;;2.63;;
48526;SDS011;34317;51.660;5.824;2022-07-29T03:25:19;6.40;;;2.80;;
48526;SDS011;34317;51.660;5.824;2022-07-29T03:27:46;3.47;;;2.70;;
48526;SDS011;34317;51.660;5.824;2022-07-29T03:30:15;4.18;;;2.25;;
48526;SDS011;34317;51.660;5.824;2022-07-29T03:32:48;3.75;;;2.40;;
48526;SDS011;34317;51.660;5.824;2022-07-29T03:35:18;3.67;;;2.72;;
48526;SDS011;34317;51.660;5.824;2022-07-29T03:37:46;4.18;;;2.60;;
48526;SDS011;34317;51.660;5.824;2022-07-29T03:40:14;4.35;;;2.75;;
48526;SDS011;34317;51.660;5.824;2022-07-29T03:42:46;4.63;;;2.78;;
48526;SDS011;34317;51.660;5.824;2022-07-29T03:45:17;3.92;;;2.60;;
48526;SDS011;34317;51.660;5.824;2022-07-29T03:47:47;5.70;;;2.90;;
48526;SDS011;34317;51.660;5.824;2022-07-29T03:50:22;4.53;;;2.50;;
48526;SDS011;34317;51.660;5.824;2022-07-29T03:52:51;3.63;;;2.70;;
48526;SDS011;34317;51.660;5.824;2022-07-29T03:55:18;3.97;;;2.70;;
48526;SDS011;34317;51.660;5.824;2022-07-29T03:57:45;5.47;;;3.00;;
48526;SDS011;34317;51.660;5.824;2022-07-29T04:00:14;5.00;;;3.00;;
48526;SDS011;34317;51.660;5.824;2022-07-29T04:02:43;4.90;;;2.85;;
48526;SDS011;34317;51.660;5.824;2022-07-29T04:05:15;8.07;;;3.38;;
48526;SDS011;34317;51.660;5.824;2022-07-29T04:07:43;4.35;;;3.22;;
48526;SDS011;34317;51.660;5.824;2022-07-29T04:10:11;4.28;;;3.10;;
48526;SDS011;34317;51.660;5.824;2022-07-29T04:12:38;5.00;;;3.30;;
48526;SDS011;34317;51.660;5.824;2022-07-29T04:15:06;6.90;;;3.40;;
48526;SDS011;34317;51.660;5.824;2022-07-29T04:17:33;4.50;;;3.13;;
48526;SDS011;34317;51.660;5.824;2022-07-29T04:20:00;5.00;;;3.05;;
48526;SDS011;34317;51.660;5.824;2022-07-29T04:22:28;4.55;;;3.60;;
48526;SDS011;34317;51.660;5.824;2022-07-29T04:24:55;6.03;;;3.78;;
48526;SDS011;34317;51.660;5.824;2022-07-29T04:27:29;6.82;;;3.60;;
48526;SDS011;34317;51.660;5.824;2022-07-29T04:29:56;4.95;;;3.58;;
48526;SDS011;34317;51.660;5.824;2022-07-29T04:32:24;4.47;;;3.30;;
48526;SDS011;34317;51.660;5.824;2022-07-29T04:34:51;6.50;;;3.40;;
48526;SDS011;34317;51.660;5.824;2022-07-29T04:37:18;5.85;;;3.67;;
48526;SDS011;34317;51.660;5.824;2022-07-29T04:39:45;5.72;;;3.63;;
48526;SDS011;34317;51.660;5.824;2022-07-29T04:42:12;4.28;;;3.60;;
48526;SDS011;34317;51.660;5.824;2022-07-29T04:44:39;7.03;;;4.00;;
48526;SDS011;34317;51.660;5.824;2022-07-29T04:47:09;6.95;;;3.92;;
48526;SDS011;34317;51.660;5.824;2022-07-29T04:49:39;11.18;;;4.00;;
48526;SDS011;34317;51.660;5.824;2022-07-29T04:52:06;4.57;;;3.72;;
48526;SDS011;34317;51.660;5.824;2022-07-29T04:54:33;5.75;;;3.67;;
48526;SDS011;34317;51.660;5.824;2022-07-29T04:57:00;8.45;;;4.63;;
48526;SDS011;34317;51.660;5.824;2022-07-29T04:59:27;6.63;;;4.43;;
48526;SDS011;34317;51.660;5.824;2022-07-29T05:01:54;6.38;;;4.22;;
48526;SDS011;34317;51.660;5.824;2022-07-29T05:04:22;6.30;;;4.47;;
48526;SDS011;34317;51.660;5.824;2022-07-29T05:06:49;5.53;;;4.07;;
48526;SDS011;34317;51.660;5.824;2022-07-29T05:09:16;7.32;;;4.43;;
48526;SDS011;34317;51.660;5.824;2022-07-29T05:11:43;4.63;;;3.83;;
48526;SDS011;34317;51.660;5.824;2022-07-29T05:14:10;7.40;;;4.50;;
48526;SDS011;34317;51.660;5.824;2022-07-29T05:16:38;6.82;;;4.80;;
48526;SDS011;34317;51.660;5.824;2022-07-29T05:19:06;5.18;;;4.15;;
48526;SDS011;34317;51.660;5.824;2022-07-29T05:21:40;6.93;;;4.30;;
48526;SDS011;34317;51.660;5.824;2022-07-29T05:24:07;7.75;;;4.40;;
48526;SDS011;34317;51.660;5.824;2022-07-29T05:26:34;5.93;;;4.40;;
48526;SDS011;34317;51.660;5.824;2022-07-29T05:29:01;6.20;;;4.35;;
48526;SDS011;34317;51.660;5.824;2022-07-29T05:31:28;5.75;;;4.68;;
48526;SDS011;34317;51.660;5.824;2022-07-29T05:33:56;7.50;;;4.25;;
48526;SDS011;34317;51.660;5.824;2022-07-29T05:36:23;6.35;;;4.05;;
48526;SDS011;34317;51.660;5.824;2022-07-29T05:38:50;7.20;;;4.03;;
48526;SDS011;34317;51.660;5.824;2022-07-29T05:41:18;5.80;;;3.67;;
48526;SDS011;34317;51.660;5.824;2022-07-29T05:43:46;7.20;;;4.00;;
48526;SDS011;34317;51.660;5.824;2022-07-29T05:46:13;6.18;;;4.03;;
48526;SDS011;34317;51.660;5.824;2022-07-29T05:48:43;5.13;;;3.95;;
48526;SDS011;34317;51.660;5.824;2022-07-29T05:51:10;4.65;;;3.97;;
48526;SDS011;34317;51.660;5.824;2022-07-29T05:53:37;6.38;;;4.00;;
48526;SDS011;34317;51.660;5.824;2022-07-29T05:56:04;5.47;;;4.00;;
48526;SDS011;34317;51.660;5.824;2022-07-29T05:58:32;5.55;;;3.75;;
48526;SDS011;34317;51.660;5.824;2022-07-29T06:00:59;6.32;;;4.22;;
48526;SDS011;34317;51.660;5.824;2022-07-29T06:03:27;6.85;;;4.03;;
48526;SDS011;34317;51.660;5.824;2022-07-29T06:05:55;6.35;;;4.10;;
48526;SDS011;34317;51.660;5.824;2022-07-29T06:08:22;6.40;;;4.30;;
48526;SDS011;34317;51.660;5.824;2022-07-29T06:10:49;6.53;;;3.88;;
48526;SDS011;34317;51.660;5.824;2022-07-29T06:13:16;6.15;;;4.13;;
48526;SDS011;34317;51.660;5.824;2022-07-29T06:15:43;5.95;;;3.92;;
48526;SDS011;34317;51.660;5.824;2022-07-29T06:18:11;6.25;;;4.00;;
48526;SDS011;34317;51.660;5.824;2022-07-29T06:20:40;7.47;;;4.32;;
48526;SDS011;34317;51.660;5.824;2022-07-29T06:23:07;6.68;;;4.43;;
48526;SDS011;34317;51.660;5.824;2022-07-29T06:25:34;6.18;;;4.10;;
48526;SDS011;34317;51.660;5.824;2022-07-29T06:28:03;6.72;;;4.47;;
48526;SDS011;34317;51.660;5.824;2022-07-29T06:30:30;6.88;;;4.25;;
48526;SDS011;34317;51.660;5.824;2022-07-29T06:32:57;6.50;;;4.40;;
48526;SDS011;34317;51.660;5.824;2022-07-29T06:35:24;5.93;;;3.92;;
48526;SDS011;34317;51.660;5.824;2022-07-29T06:38:07;7.15;;;4.00;;
48526;SDS011;34317;51.660;5.824;2022-07-29T06:40:54;7.05;;;4.07;;
48526;SDS011;34317;51.660;5.824;2022-07-29T06:43:37;7.50;;;4.10;;
48526;SDS011;34317;51.660;5.824;2022-07-29T06:46:21;5.75;;;4.05;;
48526;SDS011;34317;51.660;5.824;2022-07-29T06:48:49;5.72;;;3.67;;
48526;SDS011;34317;51.660;5.824;2022-07-29T06:51:18;7.55;;;3.92;;
48526;SDS011;34317;51.660;5.824;2022-07-29T06:53:49;5.82;;;4.05;;
48526;SDS011;34317;51.660;5.824;2022-07-29T06:56:29;6.47;;;3.85;;
48526;SDS011;34317;51.660;5.824;2022-07-29T06:59:04;5.93;;;4.00;;
48526;SDS011;34317;51.660;5.824;2022-07-29T07:01:32;7.03;;;3.97;;
48526;SDS011;34317;51.660;5.824;2022-07-29T07:03:59;5.88;;;4.07;;
48526;SDS011;34317;51.660;5.824;2022-07-29T07:06:26;6.45;;;4.18;;
48526;SDS011;34317;51.660;5.824;2022-07-29T07:08:54;5.25;;;4.07;;
48526;SDS011;34317;51.660;5.824;2022-07-29T07:11:21;6.07;;;3.95;;
48526;SDS011;34317;51.660;5.824;2022-07-29T07:13:48;5.95;;;4.35;;
48526;SDS011;34317;51.660;5.824;2022-07-29T07:16:15;6.03;;;3.72;;
48526;SDS011;34317;51.660;5.824;2022-07-29T07:18:42;9.80;;;4.90;;
48526;SDS011;34317;51.660;5.824;2022-07-29T07:21:11;7.43;;;4.65;;
48526;SDS011;34317;51.660;5.824;2022-07-29T07:23:45;5.80;;;4.35;;
48526;SDS011;34317;51.660;5.824;2022-07-29T07:26:13;7.05;;;4.25;;
48526;SDS011;34317;51.660;5.824;2022-07-29T07:28:40;6.25;;;4.47;;
48526;SDS011;34317;51.660;5.824;2022-07-29T07:31:07;8.82;;;4.13;;
48526;SDS011;34317;51.660;5.824;2022-07-29T07:33:34;5.30;;;4.22;;
48526;SDS011;34317;51.660;5.824;2022-07-29T07:36:01;6.47;;;4.13;;
48526;SDS011;34317;51.660;5.824;2022-07-29T07:38:29;6.32;;;4.25;;
48526;SDS011;34317;51.660;5.824;2022-07-29T07:40:56;6.55;;;4.40;;
48526;SDS011;34317;51.660;5.824;2022-07-29T07:43:23;5.22;;;4.03;;
48526;SDS011;34317;51.660;5.824;2022-07-29T07:45:50;5.65;;;4.05;;
48526;SDS011;34317;51.660;5.824;2022-07-29T07:48:17;6.88;;;4.00;;
48526;SDS011;34317;51.660;5.824;2022-07-29T07:50:44;5.63;;;3.78;;
48526;SDS011;34317;51.660;5.824;2022-07-29T07:53:11;5.97;;;4.53;;
48526;SDS011;34317;51.660;5.824;2022-07-29T07:55:39;5.10;;;4.00;;
48526;SDS011;34317;51.660;5.824;2022-07-29T07:58:29;7.35;;;3.63;;
48526;SDS011;34317;51.660;5.824;2022-07-29T08:00:56;4.90;;;3.65;;
48526;SDS011;34317;51.660;5.824;2022-07-29T08:03:23;7.63;;;4.22;;
48526;SDS011;34317;51.660;5.824;2022-07-29T08:05:51;6.07;;;4.03;;
48526;SDS011;34317;51.660;5.824;2022-07-29T08:08:18;4.80;;;3.70;;
48526;SDS011;34317;51.660;5.824;2022-07-29T08:10:45;4.57;;;3.65;;
48526;SDS011;34317;51.660;5.824;2022-07-29T08:13:23;4.10;;;3.17;;
48526;SDS011;34317;51.660;5.824;2022-07-29T08:18:39;6.57;;;3.63;;
48526;SDS011;34317;51.660;5.824;2022-07-29T08:21:07;7.00;;;3.67;;
48526;SDS011;34317;51.660;5.824;2022-07-29T08:23:34;5.35;;;3.65;;
48526;SDS011;34317;51.660;5.824;2022-07-29T08:26:14;6.40;;;4.20;;
48526;SDS011;34317;51.660;5.824;2022-07-29T08:28:42;6.53;;;4.07;;
48526;SDS011;34317;51.660;5.824;2022-07-29T08:31:12;7.10;;;3.72;;
48526;SDS011;34317;51.660;5.824;2022-07-29T08:33:40;6.43;;;4.10;;
48526;SDS011;34317;51.660;5.824;2022-07-29T08:36:08;4.70;;;3.55;;
48526;SDS011;34317;51.660;5.824;2022-07-29T08:38:35;5.15;;;3.72;;
48526;SDS011;34317;51.660;5.824;2022-07-29T08:41:02;5.32;;;3.40;;
48526;SDS011;34317;51.660;5.824;2022-07-29T08:43:29;5.50;;;3.33;;
48526;SDS011;34317;51.660;5.824;2022-07-29T08:45:56;4.63;;;3.28;;
48526;SDS011;34317;51.660;5.824;2022-07-29T08:48:24;5.57;;;3.47;;
48526;SDS011;34317;51.660;5.824;2022-07-29T08:50:55;4.97;;;3.10;;
48526;SDS011;34317;51.660;5.824;2022-07-29T08:53:24;7.05;;;3.90;;
48526;SDS011;34317;51.660;5.824;2022-07-29T08:55:53;6.43;;;3.50;;
48526;SDS011;34317;51.660;5.824;2022-07-29T08:58:21;7.00;;;3.28;;
48526;SDS011;34317;51.660;5.824;2022-07-29T09:00:52;5.78;;;3.17;;
48526;SDS011;34317;51.660;5.824;2022-07-29T09:03:24;6.10;;;3.58;;
48526;SDS011;34317;51.660;5.824;2022-07-29T09:05:56;5.35;;;3.33;;
48526;SDS011;34317;51.660;5.824;2022-07-29T09:08:25;5.18;;;3.42;;
48526;SDS011;34317;51.660;5.824;2022-07-29T09:10:52;6.25;;;3.38;;
48526;SDS011;34317;51.660;5.824;2022-07-29T09:13:20;7.25;;;3.67;;
48526;SDS011;34317;51.660;5.824;2022-07-29T09:15:47;4.78;;;3.47;;
48526;SDS011;34317;51.660;5.824;2022-07-29T09:18:34;6.97;;;3.67;;
48526;SDS011;34317;51.660;5.824;2022-07-29T09:21:02;7.55;;;3.45;;
48526;SDS011;34317;51.660;5.824;2022-07-29T09:24:05;4.97;;;3.78;;
48526;SDS011;34317;51.660;5.824;2022-07-29T09:26:43;6.15;;;3.85;;
48526;SDS011;34317;51.660;5.824;2022-07-29T09:29:15;6.05;;;3.92;;
48526;SDS011;34317;51.660;5.824;2022-07-29T09:31:45;6.20;;;3.85;;
48526;SDS011;34317;51.660;5.824;2022-07-29T09:34:15;4.93;;;3.30;;
48526;SDS011;34317;51.660;5.824;2022-07-29T09:36:47;6.32;;;3.72;;
48526;SDS011;34317;51.660;5.824;2022-07-29T09:39:27;5.85;;;3.75;;
48526;SDS011;34317;51.660;5.824;2022-07-29T09:42:00;8.60;;;3.65;;
48526;SDS011;34317;51.660;5.824;2022-07-29T09:44:45;6.78;;;3.40;;
48526;SDS011;34317;51.660;5.824;2022-07-29T09:47:15;6.97;;;3.78;;
48526;SDS011;34317;51.660;5.824;2022-07-29T09:49:57;4.95;;;3.58;;
48526;SDS011;34317;51.660;5.824;2022-07-29T09:52:44;6.55;;;3.70;;
48526;SDS011;34317;51.660;5.824;2022-07-29T09:55:16;6.05;;;3.50;;
48526;SDS011;34317;51.660;5.824;2022-07-29T09:57:46;5.50;;;3.17;;
48526;SDS011;34317;51.660;5.824;2022-07-29T10:00:14;5.47;;;3.20;;
48526;SDS011;34317;51.660;5.824;2022-07-29T10:02:45;4.18;;;3.25;;
48526;SDS011;34317;51.660;5.824;2022-07-29T10:05:31;4.63;;;3.10;;
48526;SDS011;34317;51.660;5.824;2022-07-29T10:08:02;7.35;;;3.50;;
48526;SDS011;34317;51.660;5.824;2022-07-29T10:10:31;5.50;;;3.20;;
48526;SDS011;34317;51.660;5.824;2022-07-29T10:13:01;5.32;;;3.58;;
48526;SDS011;34317;51.660;5.824;2022-07-29T10:15:38;4.45;;;3.15;;
48526;SDS011;34317;51.660;5.824;2022-07-29T10:18:07;5.22;;;3.28;;
48526;SDS011;34317;51.660;5.824;2022-07-29T10:20:36;5.45;;;3.28;;
48526;SDS011;34317;51.660;5.824;2022-07-29T10:23:04;5.78;;;3.50;;
48526;SDS011;34317;51.660;5.824;2022-07-29T10:25:32;4.90;;;3.33;;
48526;SDS011;34317;51.660;5.824;2022-07-29T10:27:59;4.70;;;3.53;;
48526;SDS011;34317;51.660;5.824;2022-07-29T10:30:26;5.72;;;3.50;;
48526;SDS011;34317;51.660;5.824;2022-07-29T10:39:10;5.35;;;3.28;;
48526;SDS011;34317;51.660;5.824;2022-07-29T10:44:30;6.18;;;2.88;;
48526;SDS011;34317;51.660;5.824;2022-07-29T10:47:00;4.88;;;3.05;;
48526;SDS011;34317;51.660;5.824;2022-07-29T10:49:28;4.35;;;2.97;;
48526;SDS011;34317;51.660;5.824;2022-07-29T11:02:53;5.17;;;2.70;;
48526;SDS011;34317;51.660;5.824;2022-07-29T11:05:22;4.18;;;2.50;;
48526;SDS011;34317;51.660;5.824;2022-07-29T11:10:47;4.00;;;2.47;;
48526;SDS011;34317;51.660;5.824;2022-07-29T11:16:19;4.85;;;3.30;;
48526;SDS011;34317;51.660;5.824;2022-07-29T11:21:40;4.53;;;2.70;;
48526;SDS011;34317;51.660;5.824;2022-07-29T11:29:52;3.60;;;2.65;;
48526;SDS011;34317;51.660;5.824;2022-07-29T11:32:24;4.25;;;2.80;;
48526;SDS011;34317;51.660;5.824;2022-07-29T11:35:12;4.57;;;2.83;;
48526;SDS011;34317;51.660;5.824;2022-07-29T11:37:45;6.57;;;3.05;;
48526;SDS011;34317;51.660;5.824;2022-07-29T11:40:23;6.28;;;2.67;;
48526;SDS011;34317;51.660;5.824;2022-07-29T11:42:51;3.38;;;2.67;;
48526;SDS011;34317;51.660;5.824;2022-07-29T11:45:19;4.13;;;2.72;;
48526;SDS011;34317;51.660;5.824;2022-07-29T11:48:07;5.63;;;2.95;;
48526;SDS011;34317;51.660;5.824;2022-07-29T11:50:58;4.65;;;2.65;;
48526;SDS011;34317;51.660;5.824;2022-07-29T11:53:26;5.18;;;2.35;;
48526;SDS011;34317;51.660;5.824;2022-07-29T11:55:58;4.18;;;2.65;;
48526;SDS011;34317;51.660;5.824;2022-07-29T11:58:26;3.97;;;2.50;;
48526;SDS011;34317;51.660;5.824;2022-07-29T12:00:54;6.07;;;2.38;;
48526;SDS011;34317;51.660;5.824;2022-07-29T12:03:27;3.05;;;1.98;;
48526;SDS011;34317;51.660;5.824;2022-07-29T12:06:03;3.53;;;2.33;;
48526;SDS011;34317;51.660;5.824;2022-07-29T12:08:39;5.88;;;2.40;;
48526;SDS011;34317;51.660;5.824;2022-07-29T12:11:18;2.72;;;2.00;;
48526;SDS011;34317;51.660;5.824;2022-07-29T12:13:52;4.95;;;2.75;;
48526;SDS011;34317;51.660;5.824;2022-07-29T12:16:20;4.53;;;2.47;;
48526;SDS011;34317;51.660;5.824;2022-07-29T12:18:56;3.55;;;2.50;;
48526;SDS011;34317;51.660;5.824;2022-07-29T12:21:25;8.30;;;2.90;;
48526;SDS011;34317;51.660;5.824;2022-07-29T12:23:55;5.35;;;2.47;;
48526;SDS011;34317;51.660;5.824;2022-07-29T12:26:30;5.53;;;2.40;;
48526;SDS011;34317;51.660;5.824;2022-07-29T12:28:59;2.47;;;2.17;;
48526;SDS011;34317;51.660;5.824;2022-07-29T12:31:28;3.25;;;2.28;;
48526;SDS011;34317;51.660;5.824;2022-07-29T12:34:11;3.92;;;2.40;;
48526;SDS011;34317;51.660;5.824;2022-07-29T12:36:42;4.15;;;2.60;;
48526;SDS011;34317;51.660;5.824;2022-07-29T12:39:10;3.58;;;2.35;;
48526;SDS011;34317;51.660;5.824;2022-07-29T12:41:39;3.67;;;2.50;;
48526;SDS011;34317;51.660;5.824;2022-07-29T12:44:06;3.72;;;2.53;;
48526;SDS011;34317;51.660;5.824;2022-07-29T12:46:33;4.60;;;2.65;;
48526;SDS011;34317;51.660;5.824;2022-07-29T12:49:00;4.65;;;2.80;;
48526;SDS011;34317;51.660;5.824;2022-07-29T12:51:34;5.03;;;2.97;;
48526;SDS011;34317;51.660;5.824;2022-07-29T12:54:08;4.10;;;2.70;;
48526;SDS011;34317;51.660;5.824;2022-07-29T12:56:43;3.30;;;2.50;;
48526;SDS011;34317;51.660;5.824;2022-07-29T12:59:12;3.42;;;1.80;;
48526;SDS011;34317;51.660;5.824;2022-07-29T13:01:44;5.95;;;2.78;;
48526;SDS011;34317;51.660;5.824;2022-07-29T13:04:28;4.47;;;2.90;;
48526;SDS011;34317;51.660;5.824;2022-07-29T13:06:57;5.38;;;2.72;;
48526;SDS011;34317;51.660;5.824;2022-07-29T13:09:35;3.28;;;2.22;;
48526;SDS011;34317;51.660;5.824;2022-07-29T13:12:08;4.75;;;2.20;;
48526;SDS011;34317;51.660;5.824;2022-07-29T13:14:41;3.20;;;2.08;;
48526;SDS011;34317;51.660;5.824;2022-07-29T13:17:13;4.72;;;2.47;;
48526;SDS011;34317;51.660;5.824;2022-07-29T13:22:11;2.30;;;1.70;;
48526;SDS011;34317;51.660;5.824;2022-07-29T13:24:48;4.25;;;1.88;;
48526;SDS011;34317;51.660;5.824;2022-07-29T13:27:23;4.57;;;1.75;;
48526;SDS011;34317;51.660;5.824;2022-07-29T13:29:52;2.83;;;1.75;;
48526;SDS011;34317;51.660;5.824;2022-07-29T13:32:23;3.10;;;1.75;;
48526;SDS011;34317;51.660;5.824;2022-07-29T13:34:58;4.65;;;2.15;;
48526;SDS011;34317;51.660;5.824;2022-07-29T13:37:31;3.58;;;2.00;;
48526;SDS011;34317;51.660;5.824;2022-07-29T13:40:01;3.70;;;1.80;;
48526;SDS011;34317;51.660;5.824;2022-07-29T13:42:30;2.90;;;1.83;;
48526;SDS011;34317;51.660;5.824;2022-07-29T13:44:58;3.40;;;1.90;;
48526;SDS011;34317;51.660;5.824;2022-07-29T13:47:26;4.80;;;2.10;;
48526;SDS011;34317;51.660;5.824;2022-07-29T13:50:02;3.38;;;2.28;;
48526;SDS011;34317;51.660;5.824;2022-07-29T13:52:32;3.07;;;1.90;;
48526;SDS011;34317;51.660;5.824;2022-07-29T13:55:00;3.15;;;1.70;;
48526;SDS011;34317;51.660;5.824;2022-07-29T13:57:28;2.28;;;1.70;;
48526;SDS011;34317;51.660;5.824;2022-07-29T13:59:55;3.97;;;2.20;;
48526;SDS011;34317;51.660;5.824;2022-07-29T14:02:23;3.85;;;1.90;;
48526;SDS011;34317;51.660;5.824;2022-07-29T14:04:54;2.92;;;1.88;;
48526;SDS011;34317;51.660;5.824;2022-07-29T14:07:22;3.85;;;1.77;;
48526;SDS011;34317;51.660;5.824;2022-07-29T14:09:50;3.40;;;1.85;;
48526;SDS011;34317;51.660;5.824;2022-07-29T14:12:17;4.07;;;2.00;;
48526;SDS011;34317;51.660;5.824;2022-07-29T14:14:44;2.70;;;1.77;;
48526;SDS011;34317;51.660;5.824;2022-07-29T14:17:13;3.65;;;1.77;;
48526;SDS011;34317;51.660;5.824;2022-07-29T14:19:41;3.65;;;1.80;;
48526;SDS011;34317;51.660;5.824;2022-07-29T14:22:08;4.80;;;1.80;;
48526;SDS011;34317;51.660;5.824;2022-07-29T14:24:36;2.58;;;1.80;;
48526;SDS011;34317;51.660;5.824;2022-07-29T14:27:04;3.42;;;1.63;;
48526;SDS011;34317;51.660;5.824;2022-07-29T14:29:33;2.70;;;1.67;;
48526;SDS011;34317;51.660;5.824;2022-07-29T14:32:04;5.20;;;1.92;;
48526;SDS011;34317;51.660;5.824;2022-07-29T14:34:33;2.92;;;1.70;;
48526;SDS011;34317;51.660;5.824;2022-07-29T14:37:01;4.28;;;2.00;;
48526;SDS011;34317;51.660;5.824;2022-07-29T14:39:31;3.95;;;2.00;;
48526;SDS011;34317;51.660;5.824;2022-07-29T14:41:58;3.85;;;2.05;;
48526;SDS011;34317;51.660;5.824;2022-07-29T14:44:27;3.83;;;2.00;;
48526;SDS011;34317;51.660;5.824;2022-07-29T14:46:58;4.30;;;2.05;;
48526;SDS011;34317;51.660;5.824;2022-07-29T14:49:26;4.28;;;2.22;;
48526;SDS011;34317;51.660;5.824;2022-07-29T14:51:54;3.45;;;2.00;;
48526;SDS011;34317;51.660;5.824;2022-07-29T14:54:21;3.10;;;2.00;;
48526;SDS011;34317;51.660;5.824;2022-07-29T14:56:48;4.00;;;2.08;;
48526;SDS011;34317;51.660;5.824;2022-07-29T14:59:17;2.88;;;1.60;;
48526;SDS011;34317;51.660;5.824;2022-07-29T15:01:44;2.58;;;1.60;;
48526;SDS011;34317;51.660;5.824;2022-07-29T15:04:12;3.22;;;2.00;;
48526;SDS011;34317;51.660;5.824;2022-07-29T15:06:39;5.45;;;1.83;;
48526;SDS011;34317;51.660;5.824;2022-07-29T15:09:06;2.42;;;1.50;;
48526;SDS011;34317;51.660;5.824;2022-07-29T15:11:33;5.35;;;1.73;;
48526;SDS011;34317;51.660;5.824;2022-07-29T15:14:05;2.78;;;1.80;;
48526;SDS011;34317;51.660;5.824;2022-07-29T15:16:34;2.92;;;1.50;;
48526;SDS011;34317;51.660;5.824;2022-07-29T15:19:09;2.70;;;1.50;;
48526;SDS011;34317;51.660;5.824;2022-07-29T15:21:37;4.20;;;2.10;;
48526;SDS011;34317;51.660;5.824;2022-07-29T15:24:15;2.70;;;1.60;;
48526;SDS011;34317;51.660;5.824;2022-07-29T15:26:43;3.42;;;1.73;;
48526;SDS011;34317;51.660;5.824;2022-07-29T15:29:10;3.20;;;1.83;;
48526;SDS011;34317;51.660;5.824;2022-07-29T15:31:37;2.97;;;1.70;;
48526;SDS011;34317;51.660;5.824;2022-07-29T15:34:05;3.72;;;1.40;;
48526;SDS011;34317;51.660;5.824;2022-07-29T15:36:32;4.63;;;1.52;;
48526;SDS011;34317;51.660;5.824;2022-07-29T15:39:19;3.92;;;1.70;;
48526;SDS011;34317;51.660;5.824;2022-07-29T15:41:47;3.40;;;1.80;;
48526;SDS011;34317;51.660;5.824;2022-07-29T15:44:14;2.58;;;1.75;;
48526;SDS011;34317;51.660;5.824;2022-07-29T15:46:41;5.07;;;2.17;;
48526;SDS011;34317;51.660;5.824;2022-07-29T15:49:28;2.72;;;2.00;;
48526;SDS011;34317;51.660;5.824;2022-07-29T15:52:18;2.97;;;2.10;;
48526;SDS011;34317;51.660;5.824;2022-07-29T15:54:55;3.55;;;1.80;;
48526;SDS011;34317;51.660;5.824;2022-07-29T15:57:23;3.55;;;1.98;;
48526;SDS011;34317;51.660;5.824;2022-07-29T15:59:50;3.53;;;1.83;;
48526;SDS011;34317;51.660;5.824;2022-07-29T16:02:18;4.30;;;1.80;;
48526;SDS011;34317;51.660;5.824;2022-07-29T16:04:45;3.38;;;2.30;;
48526;SDS011;34317;51.660;5.824;2022-07-29T16:07:13;4.93;;;2.33;;
48526;SDS011;34317;51.660;5.824;2022-07-29T16:09:41;4.22;;;2.17;;